Latest Coastal Weather Observations for Groote Eylandt Airport

IDD60701

Issued at 11:31 am CST Monday 29 August 2016 (issued every 10 minutes, with the page automatically refreshed every 10 minutes)

About coastal observations | Map of coastal stations | Coastal observations for NT | Marine services | Other Formats
Station Details ID: 014518 Name: GROOTE EYLANDT AIRPORT Lat: -13.97 Lon: 136.46 Height: 13.7 m
Data from the previous 72 hours. | See also: Recent months at Groote Eylandt Airport
Date/Time
CST
Temp
°C
Wind Pressure Rain since
9am
mm
Weather Cloud Vis
km
Sea
Height
m
Swell
Dir  Spd
kts
Gust
kts
hPa Trend Height
m
Period
s
Dir
29/11:30am 26.3 W 8 11 1015.3 - 0.0 - Partly cloudy 10 - - - -
29/11:00am 28.7 E 5 9 1015.5 - 0.0 - Partly cloudy 10 - - - -
29/10:30am 28.7 ENE 7 11 1015.8 - 0.0 - Partly cloudy 10 - - - -
29/10:00am 28.0 NE 7 9 1016.0 - 0.0 - Partly cloudy - - - - -
29/09:30am 27.1 ENE 7 11 1016.1 - 0.0 - Partly cloudy - - - - -
29/09:00am 26.0 ENE 3 6 1016.2 - 0.0 - - - - - - -
29/08:30am 25.0 E 1 3 1016.0 - 0.0 - Partly cloudy - - - - -
29/08:00am 21.7 E 4 5 1016.0 - 0.0 - Partly cloudy - - - - -
29/07:30am 19.1 CALM 0 0 1015.6 - 0.0 - Partly cloudy - - - - -
29/07:00am 17.8 CALM 0 0 1014.9 - 0.0 - - - - - - -
29/06:30am 17.7 CALM 0 0 1014.3 - 0.0 - - - - - - -
29/06:00am 17.5 CALM 0 0 1013.9 - 0.0 - - - - - - -
29/05:30am 17.6 CALM 0 0 1013.4 - 0.0 - - - - - - -
29/05:00am 17.7 CALM 0 0 1013.3 - 0.0 - - - - - - -
29/04:30am 18.0 CALM 0 0 1013.1 - 0.0 - - - - - - -
29/04:00am 18.0 CALM 0 0 1013.1 - 0.0 - - - - - - -
29/03:30am 18.2 CALM 0 0 1013.1 - 0.0 - - - - - - -
29/03:00am 18.5 CALM 0 0 1013.0 - 0.0 - - - - - - -
29/02:30am 18.7 CALM 0 0 1013.0 - 0.0 - - - - - - -
29/02:00am 19.1 CALM 0 0 1013.3 - 0.0 - - 10 - - - -
29/01:30am 19.0 CALM 0 0 1013.4 - 0.0 - - 10 - - - -
29/01:00am 19.2 CALM 0 0 1013.6 - 0.0 - - 10 - - - -
29/12:30am 19.4 CALM 0 0 1013.8 - 0.0 - - 10 - - - -
29/12:00am 19.7 CALM 0 0 1014.0 - 0.0 - - 10 - - - -
 
Date/Time
CST
Temp
°C
Wind Pressure Rain since
9am
mm
Weather Cloud Vis
km
Sea
Height
m
Swell
Dir  Spd
kts
Gust
kts
hPa Trend Height
m
Period
s
Dir
28/11:30pm 19.7 CALM 0 0 1014.1 - 0.0 - - 10 - - - -
28/11:00pm 20.0 CALM 0 0 1014.3 - 0.0 - - 10 - - - -
28/10:30pm 20.7 CALM 0 0 1014.4 - 0.0 - - 10 - - - -
28/10:00pm 20.9 CALM 0 0 1014.4 - 0.0 - - 10 - - - -
28/09:30pm 21.9 CALM 0 0 1014.3 - 0.0 - - 10 - - - -
28/09:00pm 22.0 ESE 2 3 1014.3 - 0.0 - - 10 - - - -
28/08:30pm 22.5 SE 3 4 1014.1 - 0.0 - - 10 - - - -
28/08:00pm 23.3 ESE 4 6 1013.9 - 0.0 - - 10 - - - -
28/07:30pm 24.0 E 7 8 1013.7 - 0.0 - - 10 - - - -
28/07:00pm 24.4 ENE 6 8 1013.4 - 0.0 - - 10 - - - -
28/06:30pm 25.2 NE 5 7 1013.3 - 0.0 - - 10 - - - -
28/06:00pm 26.2 N 5 8 1012.8 - 0.0 - - 10 - - - -
28/05:30pm 26.9 N 6 8 1012.6 - 0.0 - - 10 - - - -
28/05:00pm 27.5 NNW 5 9 1012.6 - 0.0 - - 10 - - - -
28/04:30pm 27.7 WNW 7 9 1012.3 - 0.0 - - 10 - - - -
28/04:00pm 27.8 WSW 7 10 1012.1 - 0.0 - - 10 - - - -
28/03:30pm 27.8 WSW 7 11 1012.1 - 0.0 - - 10 - - - -
28/03:00pm 28.0 W 8 12 1012.6 - 0.0 - - 10 - - - -
28/02:30pm 28.0 W 8 14 1012.9 - 0.0 - - 10 - - - -
28/02:00pm 27.7 WSW 8 12 1013.3 - 0.0 - - 10 - - - -
28/01:30pm 27.4 W 9 14 1013.9 - 0.0 - - 10 - - - -
28/01:00pm 28.5 W 8 11 1014.5 - 0.0 - - 10 - - - -
28/12:30pm 28.9 NE 7 12 1015.0 - 0.0 - - 10 - - - -
28/12:00pm 28.5 NE 7 12 1015.6 - 0.0 - - 10 - - - -
28/11:30am 27.8 ESE 6 10 1016.0 - 0.0 - - 10 - - - -
28/11:00am 26.9 SE 6 13 1016.7 - 0.0 - - 10 - - - -
28/10:30am 27.2 E 10 15 1017.1 - 0.0 - - 10 - - - -
28/10:00am 26.1 ESE 8 12 1017.4 - 0.0 - - 10 - - - -
28/09:30am 25.2 ESE 9 15 1017.6 - 0.0 - - 10 - - - -
28/09:00am 24.7 SE 6 9 1017.4 - 0.0 - - 10 - - - -
28/08:30am 21.3 E 3 4 1017.4 - 0.0 - - 10 - - - -
28/08:00am 17.5 CALM 0 0 1017.1 - 0.0 - - 10 - - - -
28/07:30am 13.6 CALM 0 0 1016.9 - 0.0 - - 10 - - - -
28/07:00am 10.7 CALM 0 0 1016.6 - 0.0 - - - - - - -
28/06:30am 9.9 CALM 0 0 1016.3 - 0.0 - - - - - - -
28/06:00am 9.7 CALM 0 0 1016.0 - 0.0 - - - - - - -
28/05:30am 10.2 CALM 0 0 1015.9 - 0.0 - - - - - - -
28/05:00am 10.3 E 2 4 1015.5 - 0.0 - - - - - - -
28/04:30am 10.3 CALM 0 3 1015.6 - 0.0 - - - - - - -
28/04:00am 10.8 E 1 4 1015.7 - 0.0 - - 10 - - - -
28/03:30am 11.1 E 2 3 1015.6 - 0.0 - - 10 - - - -
28/03:00am 11.6 E 2 3 1015.6 - 0.0 - - 10 - - - -
28/02:30am 12.1 E 3 4 1015.7 - 0.0 - - 10 - - - -
28/02:00am 12.4 ESE 4 4 1015.7 - 0.0 - - 10 - - - -
28/01:30am 12.5 ESE 1 4 1015.8 - 0.0 - - 10 - - - -
28/01:00am 13.0 ESE 4 4 1016.2 - 0.0 - - 10 - - - -
28/12:30am 13.3 ESE 4 5 1016.3 - 0.0 - - 10 - - - -
28/12:00am 13.7 ESE 4 5 1016.7 - 0.0 - - 10 - - - -
 
Date/Time
CST
Temp
°C
Wind Pressure Rain since
9am
mm
Weather Cloud Vis
km
Sea
Height
m
Swell
Dir  Spd
kts
Gust
kts
hPa Trend Height
m
Period
s
Dir
27/11:30pm 13.9 E 4 4 1016.9 - 0.0 - - 10 - - - -
27/11:00pm 14.0 E 3 4 1016.9 - 0.0 - - 10 - - - -
27/10:30pm 14.6 E 3 4 1016.9 - 0.0 - - 10 - - - -
27/10:00pm 15.5 E 3 4 1017.0 - 0.0 - - 10 - - - -
27/09:30pm 16.1 E 4 5 1016.8 - 0.0 - - 10 - - - -
27/09:00pm 17.1 ESE 3 4 1016.7 - 0.0 - - 10 - - - -
27/08:30pm 17.7 ESE 3 4 1016.5 - 0.0 - - 10 - - - -
27/08:00pm 18.9 ESE 3 3 1016.4 - 0.0 - - 10 - - - -
27/07:30pm 20.3 ESE 4 6 1016.1 - 0.0 - - 10 - - - -
27/07:00pm 21.3 ESE 5 7 1015.9 - 0.0 - - 10 - - - -
27/06:30pm 22.0 ESE 5 7 1015.8 - 0.0 - - 10 - - - -
27/06:00pm 22.9 ESE 6 11 1015.5 - 0.0 - - 10 - - - -
27/05:30pm 23.6 SE 9 14 1015.2 - 0.0 - - 10 - - - -
27/05:00pm 24.3 SE 9 14 1015.2 - 0.0 - - 10 - - - -
27/04:30pm 24.8 SSE 9 17 1014.9 - 0.0 - - 10 - - - -
27/04:00pm 25.6 SE 9 16 1014.7 - 0.0 - - 10 - - - -
27/03:30pm 26.6 SE 8 13 1014.5 - 0.0 - - 10 - - - -
27/03:00pm 26.0 SE 10 16 1014.8 - 0.0 - - 10 - - - -
27/02:30pm 26.8 SSE 9 16 1015.1 - 0.0 - - 10 - - - -
27/02:00pm 27.1 SE 9 15 1015.4 - 0.0 - - 10 - - - -
27/01:30pm 26.7 SE 9 17 1016.0 - 0.0 - - 10 - - - -
27/01:00pm 27.8 SSE 7 14 1016.5 - 0.0 - - 10 - - - -
27/12:30pm 27.0 SE 8 15 1017.0 - 0.0 - - 10 - - - -
27/12:00pm 26.8 SSE 9 15 1017.4 - 0.0 - - 10 - - - -
27/11:30am 26.7 SE 9 15 1017.8 - 0.0 - - 10 - - - -
27/11:00am 26.2 ESE 11 17 1018.2 - 0.0 - - 10 - - - -
27/10:30am 26.7 ESE 7 11 1018.5 - 0.0 - - 10 - - - -
27/10:00am 25.5 SSE 10 18 1018.7 - 0.0 - - 10 - - - -
27/09:30am 25.1 ESE 9 16 1018.4 - 0.0 - - 10 - - - -
27/09:00am 24.5 ESE 11 17 1018.3 - 0.0 - - 10 - - - -
27/08:30am 23.9 ESE 11 17 1018.1 - 0.0 - - 10 - - - -
27/08:00am 23.0 ESE 8 14 1017.9 - 0.0 - - 10 - - - -
27/07:30am 21.9 ESE 5 9 1017.7 - 0.0 - - 10 - - - -
27/07:00am 20.6 SE 4 7 1017.5 - 0.0 - - 10 - - - -
27/06:30am 19.7 SE 4 6 1017.0 - 0.0 - - 10 - - - -
27/06:00am 19.9 SE 5 7 1016.5 - 0.0 - - 10 - - - -
27/05:30am 19.4 ESE 4 5 1016.2 - 0.0 - - 10 - - - -
27/05:00am 19.9 ESE 4 6 1015.9 - 0.0 - - 10 - - - -
27/04:30am 20.6 SE 5 8 1015.8 - 0.0 - - 10 - - - -
27/04:00am 20.4 SE 4 7 1015.8 - 0.0 - - 10 - - - -
27/03:30am 20.2 ESE 5 7 1016.0 - 0.0 - - 10 - - - -
27/03:00am 20.0 ESE 5 7 1015.8 - 0.0 - - 10 - - - -
27/02:30am 19.8 ESE 5 6 1015.9 - 0.0 - - 10 - - - -
27/02:00am 17.9 ESE 4 6 1016.1 - 0.0 - - 10 - - - -
27/01:30am 16.3 ESE 3 4 1016.3 - 0.0 - - 10 - - - -
27/01:00am 15.6 ESE 3 5 1016.3 - 0.0 - - 10 - - - -
27/12:30am 15.6 CALM 0 4 1016.4 - 0.0 - - 10 - - - -
27/12:00am 15.9 ESE 1 3 1016.6 - 0.0 - - 10 - - - -
 
Date/Time
CST
Temp
°C
Wind Pressure Rain since
9am
mm
Weather Cloud Vis
km
Sea
Height
m
Swell
Dir  Spd
kts
Gust
kts
hPa Trend Height
m
Period
s
Dir
26/11:30pm 16.9 ESE 3 4 1016.6 - 0.0 - - 10 - - - -
26/11:00pm 17.2 ESE 3 3 1016.6 - 0.0 - - 10 - - - -
26/10:30pm 17.9 ESE 3 4 1016.4 - 0.0 - - 10 - - - -
26/10:00pm 18.2 CALM 0 0 1016.4 - 0.0 - - 10 - - - -
26/09:30pm 18.8 CALM 0 0 1016.3 - 0.0 - - 10 - - - -
26/09:00pm 19.7 ESE 3 4 1016.3 - 0.0 - - 10 - - - -
26/08:30pm 20.4 E 3 5 1016.3 - 0.0 - - 10 - - - -
26/08:00pm 21.7 E 4 5 1016.1 - 0.0 - - 10 - - - -
26/07:30pm 21.9 ESE 5 6 1015.8 - 0.0 - - 10 - - - -
26/07:00pm 22.6 ESE 5 7 1015.6 - 0.0 - - 10 - - - -
26/06:30pm 23.2 ESE 6 10 1015.2 - 0.0 - - 10 - - - -
26/06:00pm 24.0 SE 6 10 1015.0 - 0.0 - - 10 - - - -
26/05:30pm 24.7 SE 7 11 1014.7 - 0.0 - - 10 - - - -
26/05:00pm 24.9 SE 8 14 1014.6 - 0.0 - - 10 - - - -
26/04:30pm 25.4 SE 9 15 1014.4 - 0.0 - - 10 - - - -
26/04:00pm 25.7 SSE 9 15 1014.1 - 0.0 - - 10 - - - -
26/03:30pm 26.2 SE 9 14 1014.0 - 0.0 - - 10 - - - -
26/03:00pm 26.7 SE 9 16 1014.3 - 0.0 - - 10 - - - -
26/02:30pm 26.7 ESE 9 14 1014.8 - 0.0 - - 10 - - - -
26/02:00pm 27.4 SSE 9 16 1015.2 - 0.0 - - 10 - - - -
26/01:30pm 26.4 SSE 10 16 1015.5 - 0.0 - - 10 - - - -
26/01:00pm 26.6 SE 10 19 1015.6 - 0.0 - - 10 - - - -
26/12:30pm 26.5 SE 10 16 1015.9 - 0.0 - - 10 - - - -
26/12:00pm 26.0 SSE 12 21 1016.3 - 0.0 - - 10 - - - -

Other Formats:

Comma delimited format used in spreadsheet applications
http://www.bom.gov.au/fwo/IDD60701/IDD60701.94153.axf

JavaScript Object Notation format (JSON) in row-major order
http://www.bom.gov.au/fwo/IDD60701/IDD60701.94153.json